Time;durP1;ratioP1;P1;durP2;ratioP2;P2;SDS_P1;SDS_P2;PMS_P1;PMS_P2;Temp;Humidity;BMP_temperature;BMP_pressure;BME280_temperature;BME280_humidity;BME280_pressure;Samples;Min_cycle;Max_cycle;Signal;HPM_P1;HPM_P2
2024/01/04 00:01:36;;;;;;;;;;;;;;;8.83;84.41;98632.78;5077846;28;19943;-68
2024/01/04 00:04:39;;;;;;;;;;;;;;;8.65;85.91;98635.00;5077447;28;19923;-68
2024/01/04 00:07:42;;;;;;;;;;;;;;;8.64;86.04;98632.50;5077076;28;19924;-69
2024/01/04 00:10:45;;;;;;;;;;;;;;;8.57;85.84;98642.56;5071025;28;20284;-69
2024/01/04 00:13:48;;;;;;;;;;;;;;;8.61;85.68;98626.59;5071744;28;19932;-69
2024/01/04 00:16:51;;;;;;;;;;;;;;;8.60;85.14;98637.94;5077870;28;20438;-69
2024/01/04 00:19:54;;;;;;;;;;;;;;;8.64;84.96;98632.50;5071742;28;19998;-69
2024/01/04 00:22:57;;;;;;;;;;;;;;;8.59;84.25;98651.94;5071966;28;20429;-69
2024/01/04 00:26:00;;;;;;;;;;;;;;;8.63;83.47;98670.75;5071447;28;20004;-68
2024/01/04 00:29:03;;;;;;;;;;;;;;;8.72;81.63;98643.22;5071885;28;19923;-68
2024/01/04 00:32:06;;;;;;;;;;;;;;;8.70;81.60;98655.50;5071026;28;19931;-68
2024/01/04 00:35:09;;;;;;;;;;;;;;;8.76;81.35;98634.22;5071850;28;19924;-68
2024/01/04 00:38:13;;;;;;;;;;;;;;;8.78;80.64;98654.00;5059392;28;20294;-69
2024/01/04 00:41:18;;;;;;;;;;;;;;;8.83;80.47;98651.03;5059453;28;19935;-69
2024/01/04 00:44:21;;;;;;;;;;;;;;;8.95;83.74;98652.72;5059537;28;20441;-65
2024/01/04 00:47:24;;;;;;;;;;;;;;;9.97;80.49;98669.22;5072760;28;19923;-66
2024/01/04 00:50:27;;;;;;;;;;;;;;;10.30;79.03;98663.09;5059877;28;19924;-74
2024/01/04 00:53:30;;;;;;;;;;;;;;;10.21;76.38;98685.56;5071210;28;19954;-70
2024/01/04 00:56:34;;;;;;;;;;;;;;;9.45;75.89;98678.50;5072286;28;20029;-70
2024/01/04 00:59:37;;;;;;;;;;;;;;;9.14;76.99;98680.84;5072370;28;20316;-70
2024/01/04 01:02:39;;;;;;;;;;;;;;;9.07;76.69;98688.31;5057208;28;19923;-69
2024/01/04 01:05:42;;;;;;;;;;;;;;;9.06;77.54;98680.56;5073229;28;20323;-70
2024/01/04 01:08:46;;;;;;;;;;;;;;;9.03;77.17;98702.53;5075250;28;19971;-69
2024/01/04 01:11:49;;;;;;;;;;;;;;;9.03;77.14;98686.03;5075892;28;19973;-69
2024/01/04 01:14:52;;;;;;;;;;;;;;;9.00;76.68;98702.75;5075773;28;20008;-69
2024/01/04 01:17:55;;;;;;;;;;;;;;;9.03;77.48;98702.53;5073008;28;20122;-69
2024/01/04 01:20:58;;;;;;;;;;;;;;;8.93;79.48;98739.78;5073902;28;19927;-69
2024/01/04 01:24:01;;;;;;;;;;;;;;;8.76;81.12;98741.03;5074531;28;20355;-70
2024/01/04 01:27:04;;;;;;;;;;;;;;;8.63;83.71;98741.09;5072647;28;20330;-70
2024/01/04 01:30:07;;;;;;;;;;;;;;;8.51;86.26;98753.22;5075595;28;19923;-70
2024/01/04 01:33:10;;;;;;;;;;;;;;;8.54;87.46;98729.56;5063411;28;20000;-70
2024/01/04 01:36:13;;;;;;;;;;;;;;;8.54;87.64;98737.38;5075318;28;20330;-70
2024/01/04 01:39:16;;;;;;;;;;;;;;;8.60;88.62;98752.56;5074091;28;20015;-70
2024/01/04 01:42:20;;;;;;;;;;;;;;;8.54;88.85;98747.81;5074376;28;19969;-70
2024/01/04 01:45:23;;;;;;;;;;;;;;;8.55;87.33;98754.69;5073131;28;20011;-70
2024/01/04 01:48:26;;;;;;;;;;;;;;;8.48;85.95;98765.66;5068017;28;20023;-71
2024/01/04 01:51:29;;;;;;;;;;;;;;;8.61;85.55;98769.03;5069876;28;19923;-70
2024/01/04 01:54:32;;;;;;;;;;;;;;;8.70;87.35;98780.56;5068202;28;19955;-70
2024/01/04 01:57:36;;;;;;;;;;;;;;;8.58;85.01;98785.75;5075355;28;20029;-70
2024/01/04 02:00:39;;;;;;;;;;;;;;;8.51;86.29;98794.09;5051638;28;19928;-71
2024/01/04 02:03:42;;;;;;;;;;;;;;;8.48;84.66;98791.69;5074003;28;20004;-71
2024/01/04 02:06:45;;;;;;;;;;;;;;;8.47;86.77;98803.06;5072057;28;19923;-70
2024/01/04 02:09:49;;;;;;;;;;;;;;;8.44;87.42;98831.94;5071622;28;19923;-70
2024/01/04 02:12:52;;;;;;;;;;;;;;;8.36;87.86;98822.03;5074855;28;20019;-71
2024/01/04 02:15:54;;;;;;;;;;;;;;;8.30;87.89;98827.69;5054305;28;20414;-71
2024/01/04 02:18:57;;;;;;;;;;;;;;;8.20;88.97;98835.28;5060603;28;20429;-70
2024/01/04 02:22:02;;;;;;;;;;;;;;;8.30;90.01;98848.50;5062107;28;19923;-70
2024/01/04 02:25:05;;;;;;;;;;;;;;;8.16;90.15;98841.63;5071460;28;20228;-70
2024/01/04 02:28:09;;;;;;;;;;;;;;;8.16;93.26;98858.09;5074415;28;20061;-70
2024/01/04 02:31:11;;;;;;;;;;;;;;;8.12;92.52;98845.41;5074378;28;19977;-70
2024/01/04 02:34:14;;;;;;;;;;;;;;;8.07;91.39;98869.16;5069893;28;20296;-70
2024/01/04 02:37:18;;;;;;;;;;;;;;;8.10;91.40;98857.66;5060472;28;19924;-70
2024/01/04 02:40:21;;;;;;;;;;;;;;;8.07;91.75;98863.94;5073319;28;19947;-70
2024/01/04 02:43:24;;;;;;;;;;;;;;;8.15;92.12;98876.44;5074540;28;19923;-70
2024/01/04 02:46:27;;;;;;;;;;;;;;;8.13;91.47;98879.13;5074372;28;19924;-70
2024/01/04 02:49:30;;;;;;;;;;;;;;;8.14;91.60;98869.56;5071040;28;19923;-70
2024/01/04 02:52:33;;;;;;;;;;;;;;;8.05;92.84;98884.03;5071646;28;19923;-70
2024/01/04 02:55:36;;;;;;;;;;;;;;;8.10;94.03;98883.69;5059863;28;19962;-70
2024/01/04 02:58:39;;;;;;;;;;;;;;;8.08;92.63;98883.81;5071684;28;19927;-70
2024/01/04 03:01:48;;;;;;;;;;;;;;;8.23;91.71;98899.31;5074521;28;19974;-70
2024/01/04 03:04:50;;;;;;;;;;;;;;;8.29;92.92;98906.72;5073600;28;20011;-70
2024/01/04 03:07:53;;;;;;;;;;;;;;;8.32;92.82;98919.53;5071058;28;19962;-70
2024/01/04 03:10:56;;;;;;;;;;;;;;;8.21;94.09;98927.25;5071427;28;19931;-70
2024/01/04 03:13:59;;;;;;;;;;;;;;;8.14;95.06;98922.47;5071957;28;20058;-70
2024/01/04 03:17:02;;;;;;;;;;;;;;;8.05;95.40;98920.47;5060591;28;20030;-70
2024/01/04 03:20:06;;;;;;;;;;;;;;;8.01;95.93;98926.84;5073153;28;19927;-70
2024/01/04 03:23:09;;;;;;;;;;;;;;;8.02;95.94;98933.69;5058012;28;20399;-70
2024/01/04 03:26:13;;;;;;;;;;;;;;;8.14;97.23;98932.03;5071364;28;19924;-70
2024/01/04 03:33:36;;;;;;;;;;;;;;;8.12;97.78;98945.16;5069390;28;19939;-71
2024/01/04 03:36:39;;;;;;;;;;;;;;;8.15;98.47;98949.31;5072547;28;20482;-70
2024/01/04 03:39:42;;;;;;;;;;;;;;;8.21;98.82;98953.28;5071117;28;19931;-71
2024/01/04 03:42:45;;;;;;;;;;;;;;;8.24;96.90;98951.31;5073330;28;20417;-71
2024/01/04 03:45:48;;;;;;;;;;;;;;;8.33;98.42;98962.88;5062693;28;19978;-70
2024/01/04 03:48:51;;;;;;;;;;;;;;;8.39;99.31;98967.66;5066483;28;19975;-70
2024/01/04 03:51:54;;;;;;;;;;;;;;;8.42;99.71;98967.47;5072426;28;20331;-70
2024/01/04 03:54:57;;;;;;;;;;;;;;;8.45;97.83;98977.69;5069962;28;19923;-70
2024/01/04 03:58:00;;;;;;;;;;;;;;;8.48;99.66;98981.84;5070965;28;20003;-70
2024/01/04 04:01:03;;;;;;;;;;;;;;;8.50;99.29;98982.59;5073036;28;20426;-70
2024/01/04 04:04:07;;;;;;;;;;;;;;;8.52;99.96;98976.34;5062909;28;20390;-70
2024/01/04 04:07:10;;;;;;;;;;;;;;;8.46;100.00;98996.78;5073429;28;19940;-70
2024/01/04 04:10:14;;;;;;;;;;;;;;;8.45;100.00;98993.31;5073231;28;19923;-71
2024/01/04 04:13:17;;;;;;;;;;;;;;;8.46;100.00;98999.38;5072171;28;19927;-71
2024/01/04 04:16:20;;;;;;;;;;;;;;;8.45;100.00;99008.94;5064415;28;19969;-71
2024/01/04 04:19:23;;;;;;;;;;;;;;;8.43;99.05;98999.59;5071987;28;19932;-71
2024/01/04 04:22:27;;;;;;;;;;;;;;;8.51;96.93;99011.13;5067726;28;19923;-70
2024/01/04 04:25:29;;;;;;;;;;;;;;;8.49;96.44;99025.22;5070748;28;19943;-71
2024/01/04 04:28:32;;;;;;;;;;;;;;;8.49;94.36;99025.22;5071124;28;20402;-71
2024/01/04 04:31:35;;;;;;;;;;;;;;;8.47;94.05;99038.31;5072018;28;19999;-70
2024/01/04 04:34:38;;;;;;;;;;;;;;;8.46;94.20;99033.25;5070821;28;20342;-70
2024/01/04 04:37:41;;;;;;;;;;;;;;;8.43;95.02;99041.25;5071142;28;19923;-70
2024/01/04 04:40:43;;;;;;;;;;;;;;;8.45;94.61;99045.41;5071958;28;19932;-70
2024/01/04 04:43:46;;;;;;;;;;;;;;;8.38;93.52;99036.34;5070099;28;19974;-70
2024/01/04 04:46:49;;;;;;;;;;;;;;;8.52;93.96;99046.69;5076732;28;19940;-70
2024/01/04 04:49:52;;;;;;;;;;;;;;;8.46;93.84;99060.13;5068915;28;19962;-70
2024/01/04 04:52:55;;;;;;;;;;;;;;;8.54;95.38;99055.22;5074895;28;19943;-70
2024/01/04 04:55:57;;;;;;;;;;;;;;;8.50;95.82;99068.56;5075253;28;19924;-70
2024/01/04 04:59:00;;;;;;;;;;;;;;;8.58;94.61;99068.84;5075887;28;19927;-70
2024/01/04 05:02:04;;;;;;;;;;;;;;;8.60;94.61;99075.63;5074698;28;19924;-70
2024/01/04 05:05:07;;;;;;;;;;;;;;;8.61;96.11;99081.69;5076706;28;19924;-70
2024/01/04 05:08:10;;;;;;;;;;;;;;;8.49;95.64;99096.38;5071846;28;19923;-70
2024/01/04 05:11:13;;;;;;;;;;;;;;;8.62;96.64;99099.00;5068722;28;20346;-70
2024/01/04 05:14:16;;;;;;;;;;;;;;;8.52;95.11;99103.13;5075448;28;19924;-70
2024/01/04 05:17:19;;;;;;;;;;;;;;;8.56;94.51;99102.00;5075922;28;20395;-70
2024/01/04 05:20:22;;;;;;;;;;;;;;;8.50;92.68;99111.06;5075761;28;19951;-70
2024/01/04 05:23:25;;;;;;;;;;;;;;;8.59;94.07;99115.66;5073436;28;19926;-70
2024/01/04 05:26:28;;;;;;;;;;;;;;;8.56;93.80;99121.09;5073291;28;19974;-70
2024/01/04 05:29:31;;;;;;;;;;;;;;;8.66;93.81;99129.13;5074076;28;19924;-70
2024/01/04 05:32:34;;;;;;;;;;;;;;;8.69;93.01;99130.69;5075906;28;19989;-70
2024/01/04 05:35:38;;;;;;;;;;;;;;;8.70;94.81;99138.41;5075580;28;19924;-71
2024/01/04 05:38:41;;;;;;;;;;;;;;;8.62;94.86;99148.50;5075917;28;19923;-70
2024/01/04 05:41:44;;;;;;;;;;;;;;;8.57;95.67;99151.41;5065191;28;19924;-70
2024/01/04 05:44:47;;;;;;;;;;;;;;;8.45;93.86;99151.38;5067470;28;19923;-70
2024/01/04 05:47:50;;;;;;;;;;;;;;;8.43;95.57;99151.47;5066438;28;19966;-71
2024/01/04 05:50:53;;;;;;;;;;;;;;;8.38;94.42;99143.94;5074398;28;19962;-70
2024/01/04 05:53:56;;;;;;;;;;;;;;;8.54;94.03;99151.59;5073870;28;19931;-70
2024/01/04 05:56:59;;;;;;;;;;;;;;;8.44;92.96;99141.91;5072727;28;20004;-70
2024/01/04 06:00:02;;;;;;;;;;;;;;;8.32;91.72;99157.34;5075095;28;20357;-70
2024/01/04 06:03:08;;;;;;;;;;;;;;;8.26;92.49;99168.16;5061602;28;19938;-69
2024/01/04 06:06:14;;;;;;;;;;;;;;;8.04;91.93;99176.53;5074820;28;19923;-69
2024/01/04 06:09:20;;;;;;;;;;;;;;;8.10;93.39;99176.13;5074226;28;20600;-69
2024/01/04 06:12:23;;;;;;;;;;;;;;;8.08;91.78;99179.75;5072265;28;20007;-69
2024/01/04 06:15:26;;;;;;;;;;;;;;;8.11;93.08;99184.78;5072604;28;19966;-70
2024/01/04 06:18:33;;;;;;;;;;;;;;;8.26;92.48;99188.97;5073599;28;19923;-70
2024/01/04 06:21:39;;;;;;;;;;;;;;;8.37;92.40;99188.31;5072486;28;20004;-69
2024/01/04 06:24:42;;;;;;;;;;;;;;;8.30;93.19;99189.66;5073048;28;19923;-69
2024/01/04 06:27:46;;;;;;;;;;;;;;;8.18;94.01;99193.84;5072142;28;19923;-69
2024/01/04 06:30:50;;;;;;;;;;;;;;;8.09;94.64;99199.66;5058195;28;19966;-69
2024/01/04 06:33:52;;;;;;;;;;;;;;;8.15;94.09;99204.47;5072118;28;19924;-69
2024/01/04 06:36:55;;;;;;;;;;;;;;;8.10;94.59;99207.38;5072594;28;19939;-69
2024/01/04 06:39:58;;;;;;;;;;;;;;;8.14;94.90;99208.00;5072708;28;19931;-70
2024/01/04 06:43:03;;;;;;;;;;;;;;;8.06;94.09;99205.88;5073725;28;19923;-69
2024/01/04 06:46:06;;;;;;;;;;;;;;;7.97;94.94;99208.22;5074062;28;20061;-71
2024/01/04 06:49:09;;;;;;;;;;;;;;;7.98;95.72;99213.34;5074520;28;20387;-70
2024/01/04 06:52:12;;;;;;;;;;;;;;;7.94;96.48;99211.84;5057781;28;20421;-69
2024/01/04 06:55:15;;;;;;;;;;;;;;;7.79;97.04;99220.63;5073772;28;19970;-70
2024/01/04 06:58:18;;;;;;;;;;;;;;;7.85;97.76;99222.84;5074004;28;20407;-69
2024/01/04 07:01:21;;;;;;;;;;;;;;;7.63;99.61;99224.16;5073884;28;19927;-69
2024/01/04 07:04:25;;;;;;;;;;;;;;;7.58;99.81;99236.59;5073230;28;19923;-68
2024/01/04 07:07:27;;;;;;;;;;;;;;;7.54;100.00;99240.31;5074588;28;19939;-68
2024/01/04 07:10:31;;;;;;;;;;;;;;;7.71;99.70;99235.84;5074077;28;19994;-69
2024/01/04 07:13:34;;;;;;;;;;;;;;;7.59;100.00;99243.47;5055344;28;20419;-69
2024/01/04 07:16:44;;;;;;;;;;;;;;;7.55;100.00;99247.19;5073270;28;20440;-68
2024/01/04 07:19:47;;;;;;;;;;;;;;;7.63;100.00;99244.97;5073123;28;20463;-69
2024/01/04 07:22:52;;;;;;;;;;;;;;;7.73;99.35;99253.06;5072516;28;19923;-69
2024/01/04 07:25:55;;;;;;;;;;;;;;;7.79;93.79;99255.28;5071053;28;19966;-69
2024/01/04 07:28:58;;;;;;;;;;;;;;;7.93;92.69;99267.44;5073148;28;19927;-68
2024/01/04 07:32:01;;;;;;;;;;;;;;;7.86;92.04;99271.34;5052908;28;19924;-67
2024/01/04 07:35:05;;;;;;;;;;;;;;;7.93;91.97;99273.47;5069823;28;20288;-68
2024/01/04 07:38:10;;;;;;;;;;;;;;;8.05;92.87;99277.09;5072446;28;20398;-69
2024/01/04 07:41:15;;;;;;;;;;;;;;;7.99;90.33;99280.09;5072991;28;20288;-70
2024/01/04 07:44:19;;;;;;;;;;;;;;;7.92;90.56;99276.19;5072927;28;20008;-69
2024/01/04 07:47:22;;;;;;;;;;;;;;;7.94;90.73;99279.53;5070669;28;20398;-69
2024/01/04 07:50:25;;;;;;;;;;;;;;;8.03;89.36;99281.56;5072136;28;20387;-69
2024/01/04 07:53:28;;;;;;;;;;;;;;;7.95;89.53;99289.03;5071717;28;19966;-69
2024/01/04 07:56:31;;;;;;;;;;;;;;;7.94;90.28;99284.72;5059806;28;19970;-70
2024/01/04 07:59:33;;;;;;;;;;;;;;;7.95;89.68;99291.63;5071514;28;19931;-68
2024/01/04 08:02:36;;;;;;;;;;;;;;;8.00;89.75;99297.38;5072220;28;19959;-68
2024/01/04 08:05:39;;;;;;;;;;;;;;;8.10;89.83;99308.91;5071893;28;19924;-68
2024/01/04 08:08:42;;;;;;;;;;;;;;;8.03;89.33;99323.22;5071597;28;19923;-68
2024/01/04 08:11:46;;;;;;;;;;;;;;;8.04;89.85;99324.91;5072203;28;19986;-67
2024/01/04 08:14:49;;;;;;;;;;;;;;;8.00;90.33;99328.59;5071836;28;19935;-69
2024/01/04 08:17:52;;;;;;;;;;;;;;;7.99;91.54;99326.94;5060856;28;19923;-70
2024/01/04 08:20:55;;;;;;;;;;;;;;;7.83;94.92;99326.19;5059743;28;19928;-69
2024/01/04 08:23:57;;;;;;;;;;;;;;;7.87;95.02;99319.88;5072854;28;19939;-69
2024/01/04 08:27:00;;;;;;;;;;;;;;;7.90;94.52;99322.28;5072124;28;19969;-69
2024/01/04 08:30:03;;;;;;;;;;;;;;;7.95;94.23;99335.03;5072122;28;19927;-69
2024/01/04 08:33:06;;;;;;;;;;;;;;;8.07;94.81;99342.09;5072138;28;19974;-69
2024/01/04 08:36:10;;;;;;;;;;;;;;;8.09;93.57;99333.25;5070489;28;20456;-69
2024/01/04 08:39:14;;;;;;;;;;;;;;;8.05;94.74;99350.00;5068484;28;20008;-69
2024/01/04 08:42:17;;;;;;;;;;;;;;;8.00;94.84;99348.59;5071878;28;19923;-69
2024/01/04 08:45:20;;;;;;;;;;;;;;;7.96;95.59;99360.97;5071921;28;19969;-70
2024/01/04 08:48:23;;;;;;;;;;;;;;;8.03;96.18;99359.66;5071262;28;19954;-69
2024/01/04 08:51:26;;;;;;;;;;;;;;;7.96;96.02;99363.56;5070953;28;19927;-69
2024/01/04 08:54:29;;;;;;;;;;;;;;;8.08;96.36;99368.03;5071562;28;19931;-69
2024/01/04 08:57:32;;;;;;;;;;;;;;;8.03;96.77;99364.88;5071251;28;19923;-70
2024/01/04 09:04:57;;;;;;;;;;;;;;;8.07;95.71;99382.00;5070756;28;19943;-69
2024/01/04 09:07:59;;;;;;;;;;;;;;;8.18;95.60;99377.91;5071276;28;19943;-70
2024/01/04 09:11:03;;;;;;;;;;;;;;;8.13;95.69;99376.38;5071414;28;19938;-70
2024/01/04 09:14:11;;;;;;;;;;;;;;;8.27;95.34;99365.16;5071769;28;19927;-70
2024/01/04 09:17:14;;;;;;;;;;;;;;;8.05;94.99;99388.22;5071201;28;19970;-70
2024/01/04 09:20:17;;;;;;;;;;;;;;;8.14;94.08;99388.50;5070917;28;19931;-70
2024/01/04 09:23:20;;;;;;;;;;;;;;;8.25;94.17;99389.59;5071182;28;19923;-70
2024/01/04 09:26:23;;;;;;;;;;;;;;;8.35;93.63;99399.38;5070592;28;19935;-71
2024/01/04 09:29:28;;;;;;;;;;;;;;;8.47;91.64;99413.44;5074403;28;20403;-71
2024/01/04 09:32:31;;;;;;;;;;;;;;;8.13;91.25;99415.44;5075254;28;19924;-69
2024/01/04 09:35:35;;;;;;;;;;;;;;;8.19;92.15;99423.84;5051037;28;19971;-68
2024/01/04 09:38:39;;;;;;;;;;;;;;;8.37;91.61;99427.94;5074927;28;19939;-68
2024/01/04 09:41:44;;;;;;;;;;;;;;;8.27;93.75;99437.25;5074818;28;19927;-69
2024/01/04 09:44:48;;;;;;;;;;;;;;;8.46;94.02;99447.41;5074803;28;19923;-68
2024/01/04 09:47:54;;;;;;;;;;;;;;;8.43;94.78;99450.22;5074237;28;19923;-69
2024/01/04 09:50:58;;;;;;;;;;;;;;;8.36;94.15;99452.31;5086650;28;19969;-68
2024/01/04 09:54:02;;;;;;;;;;;;;;;8.19;94.96;99458.50;5089014;28;19963;-69
2024/01/04 09:57:07;;;;;;;;;;;;;;;8.48;95.35;99469.81;5089058;28;20005;-69
2024/01/04 10:00:10;;;;;;;;;;;;;;;8.41;95.61;99476.34;5089844;28;19928;-69
2024/01/04 10:03:16;;;;;;;;;;;;;;;8.46;93.54;99484.72;5093781;28;19994;-69
2024/01/04 10:06:24;;;;;;;;;;;;;;;8.49;93.69;99486.31;5093287;28;19998;-69
2024/01/04 10:09:28;;;;;;;;;;;;;;;8.52;92.92;99494.78;5093414;28;19981;-69
2024/01/04 10:12:32;;;;;;;;;;;;;;;8.61;94.32;99494.22;5091725;28;19927;-69
2024/01/04 10:15:36;;;;;;;;;;;;;;;8.59;93.50;99493.47;5080152;28;19939;-69
2024/01/04 10:18:41;;;;;;;;;;;;;;;8.53;90.51;99499.06;5088119;28;19923;-69
2024/01/04 10:21:44;;;;;;;;;;;;;;;8.42;90.70;99505.81;5089161;28;20314;-69
2024/01/04 10:24:47;;;;;;;;;;;;;;;8.47;92.47;99506.41;5090183;28;20390;-69
2024/01/04 10:27:55;;;;;;;;;;;;;;;8.45;90.79;99509.09;5093909;28;19961;-69
2024/01/04 10:30:58;;;;;;;;;;;;;;;8.52;88.85;99501.72;5093799;28;19928;-69
2024/01/04 10:34:02;;;;;;;;;;;;;;;8.63;88.37;99508.91;5093742;28;19966;-70
2024/01/04 10:37:11;;;;;;;;;;;;;;;8.68;89.48;99509.47;5081586;28;19928;-74
2024/01/04 10:40:18;;;;;;;;;;;;;;;8.66;87.27;99511.34;5093689;28;20337;-72
2024/01/04 10:43:21;;;;;;;;;;;;;;;8.61;86.79;99514.22;5093631;28;20334;-72
2024/01/04 10:46:24;;;;;;;;;;;;;;;8.54;87.14;99521.56;5093584;28;19927;-71
2024/01/04 10:49:27;;;;;;;;;;;;;;;8.52;84.96;99525.19;5093420;28;19923;-70
2024/01/04 10:52:31;;;;;;;;;;;;;;;8.53;84.38;99522.50;5093759;28;19939;-70
2024/01/04 10:55:35;;;;;;;;;;;;;;;8.45;83.22;99529.09;5093348;28;19923;-68
2024/01/04 10:58:40;;;;;;;;;;;;;;;8.51;84.19;99533.94;5093141;28;19923;-71
2024/01/04 11:01:43;;;;;;;;;;;;;;;8.59;83.68;99535.16;5052841;28;19927;-69
2024/01/04 11:04:47;;;;;;;;;;;;;;;8.53;83.59;99527.72;5052974;28;19923;-67
2024/01/04 11:07:52;;;;;;;;;;;;;;;8.55;83.90;99536.28;5040782;28;20011;-69
2024/01/04 11:10:54;;;;;;;;;;;;;;;8.59;85.15;99542.16;5053363;28;19923;-67
2024/01/04 11:13:58;;;;;;;;;;;;;;;8.44;84.62;99538.69;5052630;28;20015;-68
2024/01/04 11:17:00;;;;;;;;;;;;;;;8.50;85.84;99546.13;5052701;28;19923;-66
2024/01/04 11:20:08;;;;;;;;;;;;;;;8.37;88.65;99542.53;5052612;28;19927;-70
2024/01/04 11:23:20;;;;;;;;;;;;;;;8.44;90.24;99546.50;5052759;28;19970;-67
2024/01/04 11:26:27;;;;;;;;;;;;;;;8.38;92.00;99544.25;5053106;28;20288;-67
2024/01/04 11:29:32;;;;;;;;;;;;;;;8.39;94.24;99553.72;5071965;28;19995;-66
2024/01/04 11:32:36;;;;;;;;;;;;;;;8.43;92.82;99547.44;5092913;28;19942;-66
2024/01/04 11:35:39;;;;;;;;;;;;;;;8.37;90.29;99547.75;5080380;28;19923;-66
2024/01/04 11:38:44;;;;;;;;;;;;;;;8.51;90.44;99545.19;5092620;28;19982;-66
2024/01/04 11:41:46;;;;;;;;;;;;;;;8.53;89.88;99542.50;5092654;28;20367;-67
2024/01/04 11:44:50;;;;;;;;;;;;;;;8.44;89.12;99543.88;5092524;28;20015;-66
2024/01/04 11:47:54;;;;;;;;;;;;;;;8.50;88.24;99538.31;5092658;28;19923;-66
2024/01/04 11:50:58;;;;;;;;;;;;;;;8.64;89.58;99544.47;5092258;28;20297;-65
2024/01/04 11:54:04;;;;;;;;;;;;;;;8.79;91.02;99538.34;5092312;28;19923;-66
2024/01/04 11:57:18;;;;;;;;;;;;;;;8.74;88.46;99536.03;5090278;28;19922;-66
2024/01/04 12:00:21;;;;;;;;;;;;;;;8.54;86.13;99531.16;5088130;28;19927;-66
2024/01/04 12:03:28;;;;;;;;;;;;;;;8.69;86.18;99521.59;5088003;28;19969;-65
2024/01/04 12:06:32;;;;;;;;;;;;;;;8.74;86.10;99525.59;5089352;28;19922;-66
2024/01/04 12:09:35;;;;;;;;;;;;;;;8.75;86.18;99532.47;5085715;28;20236;-66
2024/01/04 12:12:41;;;;;;;;;;;;;;;8.93;82.57;99530.50;5087440;28;19922;-66
2024/01/04 12:15:45;;;;;;;;;;;;;;;8.95;79.84;99523.44;5089149;28;20025;-66
2024/01/04 12:18:48;;;;;;;;;;;;;;;9.00;80.33;99531.81;5089891;28;19988;-66
2024/01/04 12:21:52;;;;;;;;;;;;;;;9.02;76.39;99527.31;5091347;28;20049;-67
2024/01/04 12:24:55;;;;;;;;;;;;;;;8.94;77.03;99529.59;5086537;28;19922;-65
2024/01/04 12:27:59;;;;;;;;;;;;;;;9.02;75.29;99534.31;5087440;28;19923;-66
2024/01/04 12:31:02;;;;;;;;;;;;;;;9.13;73.29;99537.13;5088459;28;19923;-66
2024/01/04 12:34:09;;;;;;;;;;;;;;;8.98;73.85;99532.84;5091753;28;19924;-66
2024/01/04 12:37:15;;;;;;;;;;;;;;;9.09;73.46;99538.22;5091238;28;20339;-66
2024/01/04 12:40:19;;;;;;;;;;;;;;;8.93;73.53;99534.88;5091339;28;20382;-66
2024/01/04 12:43:27;;;;;;;;;;;;;;;9.07;73.67;99538.31;5092021;28;20503;-66
2024/01/04 12:46:33;;;;;;;;;;;;;;;9.06;74.17;99525.38;5091771;28;19939;-66
2024/01/04 12:49:36;;;;;;;;;;;;;;;9.12;74.35;99545.03;5091969;28;19970;-67
2024/01/04 12:52:40;;;;;;;;;;;;;;;9.04;72.11;99535.91;5091935;28;20275;-68
2024/01/04 12:55:43;;;;;;;;;;;;;;;9.10;72.95;99544.28;5091365;28;20075;-64
2024/01/04 12:58:47;;;;;;;;;;;;;;;8.98;72.73;99551.09;5091626;28;20019;-66
2024/01/04 13:01:50;;;;;;;;;;;;;;;8.97;73.39;99547.66;5093226;28;20045;-66
2024/01/04 13:04:53;;;;;;;;;;;;;;;8.93;72.01;99545.31;5083403;28;19981;-66
2024/01/04 13:07:57;;;;;;;;;;;;;;;9.05;71.72;99555.81;5095129;28;19923;-66
2024/01/04 13:11:02;;;;;;;;;;;;;;;9.04;72.42;99553.31;5090106;28;20307;-66
2024/01/04 13:14:05;;;;;;;;;;;;;;;8.94;70.52;99566.09;5091019;28;19927;-66
2024/01/04 13:17:09;;;;;;;;;;;;;;;8.98;70.36;99574.56;5092678;28;19970;-67
2024/01/04 13:20:12;;;;;;;;;;;;;;;8.97;70.34;99572.88;5093980;28;19977;-66
2024/01/04 13:23:15;;;;;;;;;;;;;;;8.99;70.00;99574.44;5089271;28;19942;-65
2024/01/04 13:26:18;;;;;;;;;;;;;;;9.10;69.87;99562.56;5090343;28;20291;-66
2024/01/04 13:29:21;;;;;;;;;;;;;;;9.25;70.00;99569.41;5090941;28;19923;-67
2024/01/04 13:32:25;;;;;;;;;;;;;;;9.04;68.98;99572.41;5091919;28;20057;-65
2024/01/04 13:35:29;;;;;;;;;;;;;;;9.02;68.19;99571.66;5092404;28;19975;-65
2024/01/04 13:38:32;;;;;;;;;;;;;;;9.01;69.26;99580.41;5093045;28;20058;-68
2024/01/04 13:41:35;;;;;;;;;;;;;;;9.13;68.35;99573.63;5088240;28;20394;-66
2024/01/04 13:44:38;;;;;;;;;;;;;;;9.14;68.69;99579.69;5088986;28;19970;-66
2024/01/04 13:47:41;;;;;;;;;;;;;;;9.13;68.09;99580.63;5090623;28;19923;-66
2024/01/04 13:50:45;;;;;;;;;;;;;;;9.11;68.37;99591.13;5091374;28;19926;-66
2024/01/04 13:53:48;;;;;;;;;;;;;;;9.28;69.04;99587.47;5079971;28;20322;-66
2024/01/04 13:56:51;;;;;;;;;;;;;;;9.43;68.63;99596.97;5093256;28;19935;-67
2024/01/04 13:59:55;;;;;;;;;;;;;;;9.46;66.72;99590.72;5093844;28;19927;-67
2024/01/04 14:03:02;;;;;;;;;;;;;;;9.29;67.23;99597.00;5089420;28;19923;-71
2024/01/04 14:06:14;;;;;;;;;;;;;;;9.31;66.89;99600.31;5081826;28;20044;-66
2024/01/04 14:09:18;;;;;;;;;;;;;;;9.36;66.68;99616.56;5088186;28;20353;-65
2024/01/04 14:12:21;;;;;;;;;;;;;;;9.37;65.74;99609.56;5081538;28;19958;-66
2024/01/04 14:15:24;;;;;;;;;;;;;;;9.46;66.41;99612.44;5088763;28;19967;-66
2024/01/04 14:18:27;;;;;;;;;;;;;;;9.34;68.86;99618.41;5086313;28;19973;-65
2024/01/04 14:21:30;;;;;;;;;;;;;;;9.28;67.16;99608.34;5080576;28;19943;-67
2024/01/04 14:24:33;;;;;;;;;;;;;;;9.34;67.32;99618.41;5079012;28;19927;-66
2024/01/04 14:27:36;;;;;;;;;;;;;;;9.16;67.64;99606.50;5090008;28;20533;-67
2024/01/04 14:30:39;;;;;;;;;;;;;;;9.13;68.05;99609.31;5077947;28;19939;-66
2024/01/04 14:33:42;;;;;;;;;;;;;;;9.23;67.53;99620.84;5072652;28;20023;-67
2024/01/04 14:36:44;;;;;;;;;;;;;;;9.20;67.88;99621.88;5070906;28;19939;-68
2024/01/04 14:39:49;;;;;;;;;;;;;;;9.17;67.70;99618.59;5072188;28;20295;-66
2024/01/04 14:42:52;;;;;;;;;;;;;;;9.19;69.64;99625.41;5073358;28;20430;-66
2024/01/04 14:45:56;;;;;;;;;;;;;;;9.18;69.01;99622.88;5073413;28;19928;-67
2024/01/04 14:49:01;;;;;;;;;;;;;;;9.00;69.24;99641.34;5073248;28;20026;-67
2024/01/04 14:52:05;;;;;;;;;;;;;;;8.94;68.51;99628.66;5073244;28;20288;-67
2024/01/04 14:55:09;;;;;;;;;;;;;;;8.87;68.58;99645.59;5072236;28;19942;-67
2024/01/04 14:58:12;;;;;;;;;;;;;;;8.82;68.68;99638.03;5073482;28;20104;-66
2024/01/04 15:01:15;;;;;;;;;;;;;;;8.88;69.64;99642.06;5073121;28;19944;-67
2024/01/04 15:04:18;;;;;;;;;;;;;;;8.93;70.86;99639.16;5073296;28;19938;-66
2024/01/04 15:07:21;;;;;;;;;;;;;;;8.95;69.88;99637.31;5072152;28;20409;-67
2024/01/04 15:10:25;;;;;;;;;;;;;;;8.99;71.88;99631.81;5071221;28;19966;-68
2024/01/04 15:13:29;;;;;;;;;;;;;;;8.98;70.39;99634.53;5071677;28;19946;-67
2024/01/04 15:16:32;;;;;;;;;;;;;;;8.96;70.71;99632.00;5072514;28;19992;-68
2024/01/04 15:19:35;;;;;;;;;;;;;;;8.94;72.77;99630.44;5077924;28;19946;-67
2024/01/04 15:22:38;;;;;;;;;;;;;;;8.89;72.20;99629.84;5091340;28;19938;-67
2024/01/04 15:25:41;;;;;;;;;;;;;;;8.92;72.19;99627.91;5085284;28;19972;-67
2024/01/04 15:28:45;;;;;;;;;;;;;;;8.93;72.51;99633.94;5088198;28;19970;-68
2024/01/04 15:31:49;;;;;;;;;;;;;;;8.82;72.49;99634.59;5080425;28;20022;-68
2024/01/04 15:34:56;;;;;;;;;;;;;;;8.73;71.79;99640.34;5072722;28;19962;-69
2024/01/04 15:37:59;;;;;;;;;;;;;;;8.64;73.21;99633.06;5072197;28;19969;-67
2024/01/04 15:41:02;;;;;;;;;;;;;;;8.70;73.13;99632.72;5071952;28;20392;-67
2024/01/04 15:44:08;;;;;;;;;;;;;;;8.59;73.19;99631.56;5072849;28;19923;-68
2024/01/04 15:47:11;;;;;;;;;;;;;;;8.50;73.53;99632.09;5072708;28;20014;-68
2024/01/04 15:50:14;;;;;;;;;;;;;;;8.55;74.10;99624.88;5073256;28;19927;-68
2024/01/04 15:53:17;;;;;;;;;;;;;;;8.52;73.48;99627.66;5073481;28;19962;-70
2024/01/04 15:56:22;;;;;;;;;;;;;;;8.55;74.48;99634.44;5073508;28;20299;-68
2024/01/04 15:59:26;;;;;;;;;;;;;;;8.44;74.43;99637.66;5073428;28;20008;-69
2024/01/04 16:02:29;;;;;;;;;;;;;;;8.34;75.19;99641.69;5073487;28;19986;-68
2024/01/04 16:23:17;;;;;;;;;;;;;;;8.19;79.96;99671.22;5479489;23;19977;-72
2024/01/04 16:26:20;;;;;;;;;;;;;;;8.09;81.14;99674.31;4991756;28;20089;-68
2024/01/04 16:29:23;;;;;;;;;;;;;;;7.95;82.02;99666.44;4991620;28;19924;-68
2024/01/04 16:32:27;;;;;;;;;;;;;;;7.88;82.17;99665.09;4993612;28;20003;-68
2024/01/04 16:35:30;;;;;;;;;;;;;;;7.69;83.63;99676.53;4992111;28;19924;-65